sensor_id;sensor_type;location;lat;lon;timestamp;temperature;humidity
2158;DHT22;41972;48.774;9.282;2023-05-07T00:01:41;12.90;99.90
2158;DHT22;41972;48.774;9.282;2023-05-07T00:04:07;12.80;99.90
2158;DHT22;41972;48.774;9.282;2023-05-07T00:06:33;12.60;99.90
2158;DHT22;41972;48.774;9.282;2023-05-07T00:08:58;13.10;99.90
2158;DHT22;41972;48.774;9.282;2023-05-07T00:11:25;12.60;99.90
2158;DHT22;41972;48.774;9.282;2023-05-07T00:13:51;12.90;99.90
2158;DHT22;41972;48.774;9.282;2023-05-07T00:16:17;12.60;99.90
2158;DHT22;41972;48.774;9.282;2023-05-07T00:18:42;12.40;99.90
2158;DHT22;41972;48.774;9.282;2023-05-07T00:21:08;12.40;99.90
2158;DHT22;41972;48.774;9.282;2023-05-07T00:23:33;13.80;99.90
2158;DHT22;41972;48.774;9.282;2023-05-07T00:25:59;12.50;99.90
2158;DHT22;41972;48.774;9.282;2023-05-07T00:28:25;12.60;99.90
2158;DHT22;41972;48.774;9.282;2023-05-07T00:30:50;12.60;99.90
2158;DHT22;41972;48.774;9.282;2023-05-07T00:33:16;12.20;99.90
2158;DHT22;41972;48.774;9.282;2023-05-07T00:35:42;12.40;99.90
2158;DHT22;41972;48.774;9.282;2023-05-07T00:38:08;11.90;99.90
2158;DHT22;41972;48.774;9.282;2023-05-07T00:40:33;12.20;99.90
2158;DHT22;41972;48.774;9.282;2023-05-07T00:42:59;12.20;99.90
2158;DHT22;41972;48.774;9.282;2023-05-07T00:45:28;12.10;99.90
2158;DHT22;41972;48.774;9.282;2023-05-07T00:47:58;12.20;99.90
2158;DHT22;41972;48.774;9.282;2023-05-07T00:50:25;12.00;99.90
2158;DHT22;41972;48.774;9.282;2023-05-07T00:52:51;12.00;99.90
2158;DHT22;41972;48.774;9.282;2023-05-07T00:55:17;12.40;99.90
2158;DHT22;41972;48.774;9.282;2023-05-07T00:57:42;11.80;99.90
2158;DHT22;41972;48.774;9.282;2023-05-07T01:00:09;11.80;99.90
2158;DHT22;41972;48.774;9.282;2023-05-07T01:02:35;11.90;99.90
2158;DHT22;41972;48.774;9.282;2023-05-07T01:05:02;11.80;99.90
2158;DHT22;41972;48.774;9.282;2023-05-07T01:07:29;11.90;99.90
2158;DHT22;41972;48.774;9.282;2023-05-07T01:09:55;12.00;99.90
2158;DHT22;41972;48.774;9.282;2023-05-07T01:12:21;11.90;99.90
2158;DHT22;41972;48.774;9.282;2023-05-07T01:14:47;11.90;99.90
2158;DHT22;41972;48.774;9.282;2023-05-07T01:17:15;11.80;99.90
2158;DHT22;41972;48.774;9.282;2023-05-07T01:19:41;11.70;99.90
2158;DHT22;41972;48.774;9.282;2023-05-07T01:22:10;11.70;99.90
2158;DHT22;41972;48.774;9.282;2023-05-07T01:24:40;12.40;99.90
2158;DHT22;41972;48.774;9.282;2023-05-07T01:27:06;11.80;99.90
2158;DHT22;41972;48.774;9.282;2023-05-07T01:29:32;11.60;99.90
2158;DHT22;41972;48.774;9.282;2023-05-07T01:31:59;11.50;99.90
2158;DHT22;41972;48.774;9.282;2023-05-07T01:34:27;12.10;99.90
2158;DHT22;41972;48.774;9.282;2023-05-07T01:36:54;11.50;99.90
2158;DHT22;41972;48.774;9.282;2023-05-07T01:39:22;11.50;99.90
2158;DHT22;41972;48.774;9.282;2023-05-07T01:41:49;11.60;99.90
2158;DHT22;41972;48.774;9.282;2023-05-07T01:44:14;11.50;99.90
2158;DHT22;41972;48.774;9.282;2023-05-07T01:46:40;11.40;99.90
2158;DHT22;41972;48.774;9.282;2023-05-07T01:49:06;11.40;99.90
2158;DHT22;41972;48.774;9.282;2023-05-07T01:51:31;11.30;99.90
2158;DHT22;41972;48.774;9.282;2023-05-07T01:53:58;11.40;99.90
2158;DHT22;41972;48.774;9.282;2023-05-07T01:56:24;11.30;99.90
2158;DHT22;41972;48.774;9.282;2023-05-07T01:58:50;11.30;99.90
2158;DHT22;41972;48.774;9.282;2023-05-07T02:01:18;11.40;99.90
2158;DHT22;41972;48.774;9.282;2023-05-07T02:03:44;11.30;99.90
2158;DHT22;41972;48.774;9.282;2023-05-07T02:06:09;11.30;99.90
2158;DHT22;41972;48.774;9.282;2023-05-07T02:08:35;11.30;99.90
2158;DHT22;41972;48.774;9.282;2023-05-07T02:11:01;11.20;99.90
2158;DHT22;41972;48.774;9.282;2023-05-07T02:13:29;11.20;99.90
2158;DHT22;41972;48.774;9.282;2023-05-07T02:15:55;11.30;99.90
2158;DHT22;41972;48.774;9.282;2023-05-07T02:18:20;11.30;99.90
2158;DHT22;41972;48.774;9.282;2023-05-07T02:20:46;11.20;99.90
2158;DHT22;41972;48.774;9.282;2023-05-07T02:23:12;11.30;99.90
2158;DHT22;41972;48.774;9.282;2023-05-07T02:25:37;11.10;99.90
2158;DHT22;41972;48.774;9.282;2023-05-07T02:28:03;11.20;99.90
2158;DHT22;41972;48.774;9.282;2023-05-07T02:30:29;11.10;99.90
2158;DHT22;41972;48.774;9.282;2023-05-07T02:32:54;11.10;99.90
2158;DHT22;41972;48.774;9.282;2023-05-07T02:35:20;10.90;99.90
2158;DHT22;41972;48.774;9.282;2023-05-07T02:37:45;11.40;99.90
2158;DHT22;41972;48.774;9.282;2023-05-07T02:40:11;11.10;99.90
2158;DHT22;41972;48.774;9.282;2023-05-07T02:42:37;11.10;99.90
2158;DHT22;41972;48.774;9.282;2023-05-07T02:45:03;11.30;99.90
2158;DHT22;41972;48.774;9.282;2023-05-07T02:47:29;10.90;99.90
2158;DHT22;41972;48.774;9.282;2023-05-07T02:49:55;10.90;99.90
2158;DHT22;41972;48.774;9.282;2023-05-07T02:52:21;10.90;99.90
2158;DHT22;41972;48.774;9.282;2023-05-07T02:54:47;10.90;99.90
2158;DHT22;41972;48.774;9.282;2023-05-07T02:57:12;10.80;99.90
2158;DHT22;41972;48.774;9.282;2023-05-07T02:59:38;10.60;99.90
2158;DHT22;41972;48.774;9.282;2023-05-07T03:02:03;10.70;99.90
2158;DHT22;41972;48.774;9.282;2023-05-07T03:04:29;10.60;99.90
2158;DHT22;41972;48.774;9.282;2023-05-07T03:06:54;10.40;99.90
2158;DHT22;41972;48.774;9.282;2023-05-07T03:09:22;10.40;99.90
2158;DHT22;41972;48.774;9.282;2023-05-07T03:11:47;10.40;99.90
2158;DHT22;41972;48.774;9.282;2023-05-07T03:14:13;10.40;99.90
2158;DHT22;41972;48.774;9.282;2023-05-07T03:16:40;10.40;99.90
2158;DHT22;41972;48.774;9.282;2023-05-07T03:19:05;10.50;99.90
2158;DHT22;41972;48.774;9.282;2023-05-07T03:21:31;10.90;99.90
2158;DHT22;41972;48.774;9.282;2023-05-07T03:23:59;10.30;99.90
2158;DHT22;41972;48.774;9.282;2023-05-07T03:26:24;10.30;99.90
2158;DHT22;41972;48.774;9.282;2023-05-07T03:28:50;10.30;99.90
2158;DHT22;41972;48.774;9.282;2023-05-07T03:31:16;10.40;99.90
2158;DHT22;41972;48.774;9.282;2023-05-07T03:33:55;10.40;99.90
2158;DHT22;41972;48.774;9.282;2023-05-07T03:36:22;10.40;99.90
2158;DHT22;41972;48.774;9.282;2023-05-07T03:38:48;11.00;99.90
2158;DHT22;41972;48.774;9.282;2023-05-07T03:41:14;10.20;99.90
2158;DHT22;41972;48.774;9.282;2023-05-07T03:43:39;10.10;99.90
2158;DHT22;41972;48.774;9.282;2023-05-07T03:46:05;10.00;99.90
2158;DHT22;41972;48.774;9.282;2023-05-07T03:48:30;10.10;99.90
2158;DHT22;41972;48.774;9.282;2023-05-07T03:50:57;10.10;99.90
2158;DHT22;41972;48.774;9.282;2023-05-07T03:53:23;10.10;99.90
2158;DHT22;41972;48.774;9.282;2023-05-07T03:55:48;10.10;99.90
2158;DHT22;41972;48.774;9.282;2023-05-07T03:58:15;10.10;99.90
2158;DHT22;41972;48.774;9.282;2023-05-07T04:00:41;10.50;99.90
2158;DHT22;41972;48.774;9.282;2023-05-07T04:03:06;10.20;99.90
2158;DHT22;41972;48.774;9.282;2023-05-07T04:05:32;10.40;99.90
2158;DHT22;41972;48.774;9.282;2023-05-07T04:07:58;10.10;99.90
2158;DHT22;41972;48.774;9.282;2023-05-07T04:10:24;10.20;99.90
2158;DHT22;41972;48.774;9.282;2023-05-07T04:12:50;10.20;99.90
2158;DHT22;41972;48.774;9.282;2023-05-07T04:15:16;10.20;99.90
2158;DHT22;41972;48.774;9.282;2023-05-07T04:17:41;10.30;99.90
2158;DHT22;41972;48.774;9.282;2023-05-07T04:20:10;10.50;99.90
2158;DHT22;41972;48.774;9.282;2023-05-07T04:22:36;10.60;99.90
2158;DHT22;41972;48.774;9.282;2023-05-07T04:25:02;10.60;99.90
2158;DHT22;41972;48.774;9.282;2023-05-07T04:27:28;10.60;99.90
2158;DHT22;41972;48.774;9.282;2023-05-07T04:29:54;10.60;99.90
2158;DHT22;41972;48.774;9.282;2023-05-07T04:32:22;10.60;99.90
2158;DHT22;41972;48.774;9.282;2023-05-07T04:34:47;10.70;99.90
2158;DHT22;41972;48.774;9.282;2023-05-07T04:37:13;10.80;99.90
2158;DHT22;41972;48.774;9.282;2023-05-07T04:39:39;10.80;99.90
2158;DHT22;41972;48.774;9.282;2023-05-07T04:42:04;11.10;99.90
2158;DHT22;41972;48.774;9.282;2023-05-07T04:44:30;11.30;99.90
2158;DHT22;41972;48.774;9.282;2023-05-07T04:46:56;12.00;99.90
2158;DHT22;41972;48.774;9.282;2023-05-07T04:49:22;12.30;99.90
2158;DHT22;41972;48.774;9.282;2023-05-07T04:51:48;12.80;99.90
2158;DHT22;41972;48.774;9.282;2023-05-07T04:54:13;13.00;99.90
2158;DHT22;41972;48.774;9.282;2023-05-07T04:56:39;13.00;99.90
2158;DHT22;41972;48.774;9.282;2023-05-07T04:59:04;13.20;99.90
2158;DHT22;41972;48.774;9.282;2023-05-07T05:01:31;13.40;99.90
2158;DHT22;41972;48.774;9.282;2023-05-07T05:03:56;13.50;99.90
2158;DHT22;41972;48.774;9.282;2023-05-07T05:06:22;13.50;99.90
2158;DHT22;41972;48.774;9.282;2023-05-07T05:08:47;12.90;99.90
2158;DHT22;41972;48.774;9.282;2023-05-07T05:11:13;12.40;99.90
2158;DHT22;41972;48.774;9.282;2023-05-07T05:13:39;12.20;99.90
2158;DHT22;41972;48.774;9.282;2023-05-07T05:16:05;12.10;99.90
2158;DHT22;41972;48.774;9.282;2023-05-07T05:18:31;12.30;99.90
2158;DHT22;41972;48.774;9.282;2023-05-07T05:20:56;12.40;99.90
2158;DHT22;41972;48.774;9.282;2023-05-07T05:23:22;12.60;99.90
2158;DHT22;41972;48.774;9.282;2023-05-07T05:25:47;12.40;99.90
2158;DHT22;41972;48.774;9.282;2023-05-07T05:28:13;13.00;99.90
2158;DHT22;41972;48.774;9.282;2023-05-07T05:30:39;12.50;99.90
2158;DHT22;41972;48.774;9.282;2023-05-07T05:33:05;13.50;99.90
2158;DHT22;41972;48.774;9.282;2023-05-07T05:35:30;14.90;99.90
2158;DHT22;41972;48.774;9.282;2023-05-07T05:37:57;16.20;99.90
2158;DHT22;41972;48.774;9.282;2023-05-07T05:40:22;17.10;99.90
2158;DHT22;41972;48.774;9.282;2023-05-07T05:42:48;18.10;99.90
2158;DHT22;41972;48.774;9.282;2023-05-07T05:45:13;18.60;99.90
2158;DHT22;41972;48.774;9.282;2023-05-07T05:47:39;17.00;99.90
2158;DHT22;41972;48.774;9.282;2023-05-07T05:50:06;16.20;99.90
2158;DHT22;41972;48.774;9.282;2023-05-07T05:52:31;16.20;99.90
2158;DHT22;41972;48.774;9.282;2023-05-07T05:54:57;16.50;99.90
2158;DHT22;41972;48.774;9.282;2023-05-07T05:57:23;17.30;99.90
2158;DHT22;41972;48.774;9.282;2023-05-07T05:59:48;18.00;99.90
2158;DHT22;41972;48.774;9.282;2023-05-07T06:02:14;17.50;99.90
2158;DHT22;41972;48.774;9.282;2023-05-07T06:04:39;17.40;99.90
2158;DHT22;41972;48.774;9.282;2023-05-07T06:07:05;17.90;99.90
2158;DHT22;41972;48.774;9.282;2023-05-07T06:09:31;17.50;99.90
2158;DHT22;41972;48.774;9.282;2023-05-07T06:11:56;16.40;99.90
2158;DHT22;41972;48.774;9.282;2023-05-07T06:14:22;17.30;99.90
2158;DHT22;41972;48.774;9.282;2023-05-07T06:16:48;18.50;99.90
2158;DHT22;41972;48.774;9.282;2023-05-07T06:19:13;19.00;99.90
2158;DHT22;41972;48.774;9.282;2023-05-07T06:21:39;19.50;99.90
2158;DHT22;41972;48.774;9.282;2023-05-07T06:24:05;20.10;99.90
2158;DHT22;41972;48.774;9.282;2023-05-07T06:26:31;20.50;99.90
2158;DHT22;41972;48.774;9.282;2023-05-07T06:28:57;20.50;99.90
2158;DHT22;41972;48.774;9.282;2023-05-07T06:31:22;19.40;99.90
2158;DHT22;41972;48.774;9.282;2023-05-07T06:33:49;18.30;99.90
2158;DHT22;41972;48.774;9.282;2023-05-07T06:36:15;17.80;99.90
2158;DHT22;41972;48.774;9.282;2023-05-07T06:38:40;18.30;99.90
2158;DHT22;41972;48.774;9.282;2023-05-07T06:41:06;18.10;99.90
2158;DHT22;41972;48.774;9.282;2023-05-07T06:43:33;18.10;99.90
2158;DHT22;41972;48.774;9.282;2023-05-07T06:45:58;18.40;99.90
2158;DHT22;41972;48.774;9.282;2023-05-07T06:48:24;18.80;99.90
2158;DHT22;41972;48.774;9.282;2023-05-07T06:50:50;20.10;99.90
2158;DHT22;41972;48.774;9.282;2023-05-07T06:53:15;21.20;99.90
2158;DHT22;41972;48.774;9.282;2023-05-07T06:55:41;21.30;99.90
2158;DHT22;41972;48.774;9.282;2023-05-07T06:58:07;21.80;99.90
2158;DHT22;41972;48.774;9.282;2023-05-07T07:00:32;22.20;99.90
2158;DHT22;41972;48.774;9.282;2023-05-07T07:02:58;22.70;99.90
2158;DHT22;41972;48.774;9.282;2023-05-07T07:05:25;23.70;99.90
2158;DHT22;41972;48.774;9.282;2023-05-07T07:07:50;24.40;99.90
2158;DHT22;41972;48.774;9.282;2023-05-07T07:10:21;26.20;99.90
2158;DHT22;41972;48.774;9.282;2023-05-07T07:12:49;24.90;99.90
2158;DHT22;41972;48.774;9.282;2023-05-07T07:15:14;23.40;99.90
2158;DHT22;41972;48.774;9.282;2023-05-07T07:17:40;25.40;99.90
2158;DHT22;41972;48.774;9.282;2023-05-07T07:20:06;26.30;99.90
2158;DHT22;41972;48.774;9.282;2023-05-07T07:22:32;24.30;99.90
2158;DHT22;41972;48.774;9.282;2023-05-07T07:24:58;24.30;99.90
2158;DHT22;41972;48.774;9.282;2023-05-07T07:27:23;25.50;99.90
2158;DHT22;41972;48.774;9.282;2023-05-07T07:29:49;26.50;99.90
2158;DHT22;41972;48.774;9.282;2023-05-07T07:32:15;26.30;99.90
2158;DHT22;41972;48.774;9.282;2023-05-07T07:34:41;27.10;99.90
2158;DHT22;41972;48.774;9.282;2023-05-07T07:37:07;27.90;99.90
2158;DHT22;41972;48.774;9.282;2023-05-07T07:39:33;27.50;99.90
2158;DHT22;41972;48.774;9.282;2023-05-07T07:41:59;25.00;99.90
2158;DHT22;41972;48.774;9.282;2023-05-07T07:44:25;24.00;99.90
2158;DHT22;41972;48.774;9.282;2023-05-07T07:46:51;23.70;99.90
2158;DHT22;41972;48.774;9.282;2023-05-07T07:49:16;25.10;99.90
2158;DHT22;41972;48.774;9.282;2023-05-07T07:51:42;27.30;99.90
2158;DHT22;41972;48.774;9.282;2023-05-07T07:54:08;27.20;99.90
2158;DHT22;41972;48.774;9.282;2023-05-07T07:56:34;29.40;99.90
2158;DHT22;41972;48.774;9.282;2023-05-07T07:59:00;28.90;99.90
2158;DHT22;41972;48.774;9.282;2023-05-07T08:01:25;28.30;99.90
2158;DHT22;41972;48.774;9.282;2023-05-07T08:03:53;28.20;99.90
2158;DHT22;41972;48.774;9.282;2023-05-07T08:06:19;30.80;99.90
2158;DHT22;41972;48.774;9.282;2023-05-07T08:08:46;30.70;99.90
2158;DHT22;41972;48.774;9.282;2023-05-07T08:11:11;30.00;99.90
2158;DHT22;41972;48.774;9.282;2023-05-07T08:13:38;30.40;99.90
2158;DHT22;41972;48.774;9.282;2023-05-07T08:16:04;31.30;99.90
2158;DHT22;41972;48.774;9.282;2023-05-07T08:18:30;31.40;99.90
2158;DHT22;41972;48.774;9.282;2023-05-07T08:20:55;28.00;99.90
2158;DHT22;41972;48.774;9.282;2023-05-07T08:23:21;26.40;99.90
2158;DHT22;41972;48.774;9.282;2023-05-07T08:25:48;25.90;99.90
2158;DHT22;41972;48.774;9.282;2023-05-07T08:28:14;27.50;99.90
2158;DHT22;41972;48.774;9.282;2023-05-07T08:30:39;28.20;99.90
2158;DHT22;41972;48.774;9.282;2023-05-07T08:33:05;27.00;99.90
2158;DHT22;41972;48.774;9.282;2023-05-07T08:35:31;26.50;99.90
2158;DHT22;41972;48.774;9.282;2023-05-07T08:37:57;29.30;99.90
2158;DHT22;41972;48.774;9.282;2023-05-07T08:40:25;30.60;99.90
2158;DHT22;41972;48.774;9.282;2023-05-07T08:42:52;29.30;99.90
2158;DHT22;41972;48.774;9.282;2023-05-07T08:45:19;30.60;99.90
2158;DHT22;41972;48.774;9.282;2023-05-07T08:47:50;29.20;99.90
2158;DHT22;41972;48.774;9.282;2023-05-07T08:50:17;28.90;99.90
2158;DHT22;41972;48.774;9.282;2023-05-07T08:52:43;29.60;99.90
2158;DHT22;41972;48.774;9.282;2023-05-07T08:55:09;31.40;99.90
2158;DHT22;41972;48.774;9.282;2023-05-07T08:57:35;32.00;99.90
2158;DHT22;41972;48.774;9.282;2023-05-07T09:00:02;32.30;99.90
2158;DHT22;41972;48.774;9.282;2023-05-07T09:02:28;29.50;99.90
2158;DHT22;41972;48.774;9.282;2023-05-07T09:04:54;29.40;99.90
2158;DHT22;41972;48.774;9.282;2023-05-07T09:07:20;31.70;99.90
2158;DHT22;41972;48.774;9.282;2023-05-07T09:09:46;34.20;99.90
2158;DHT22;41972;48.774;9.282;2023-05-07T09:12:12;34.90;99.90
2158;DHT22;41972;48.774;9.282;2023-05-07T09:14:38;30.20;99.90
2158;DHT22;41972;48.774;9.282;2023-05-07T09:17:04;29.60;99.90
2158;DHT22;41972;48.774;9.282;2023-05-07T09:19:30;29.80;99.90
2158;DHT22;41972;48.774;9.282;2023-05-07T09:22:03;29.80;99.90
2158;DHT22;41972;48.774;9.282;2023-05-07T09:24:30;31.20;99.90
2158;DHT22;41972;48.774;9.282;2023-05-07T09:27:00;31.10;99.90
2158;DHT22;41972;48.774;9.282;2023-05-07T09:29:26;29.70;99.90
2158;DHT22;41972;48.774;9.282;2023-05-07T09:31:54;30.50;99.90
2158;DHT22;41972;48.774;9.282;2023-05-07T09:34:20;33.70;99.90
2158;DHT22;41972;48.774;9.282;2023-05-07T09:36:46;35.90;99.90
2158;DHT22;41972;48.774;9.282;2023-05-07T09:39:13;33.40;99.90
2158;DHT22;41972;48.774;9.282;2023-05-07T09:41:45;31.30;99.90
2158;DHT22;41972;48.774;9.282;2023-05-07T09:44:11;30.50;99.90
2158;DHT22;41972;48.774;9.282;2023-05-07T09:46:38;31.40;99.90
2158;DHT22;41972;48.774;9.282;2023-05-07T09:49:06;33.70;99.90
2158;DHT22;41972;48.774;9.282;2023-05-07T09:51:41;33.40;99.90
2158;DHT22;41972;48.774;9.282;2023-05-07T09:54:08;32.40;99.90
2158;DHT22;41972;48.774;9.282;2023-05-07T09:56:35;33.30;99.90
2158;DHT22;41972;48.774;9.282;2023-05-07T09:59:03;33.30;99.90
2158;DHT22;41972;48.774;9.282;2023-05-07T10:01:31;31.70;99.90
2158;DHT22;41972;48.774;9.282;2023-05-07T10:03:57;32.70;99.90
2158;DHT22;41972;48.774;9.282;2023-05-07T10:06:24;31.60;99.90
2158;DHT22;41972;48.774;9.282;2023-05-07T10:08:52;32.40;99.90
2158;DHT22;41972;48.774;9.282;2023-05-07T10:11:18;31.90;99.90
2158;DHT22;41972;48.774;9.282;2023-05-07T10:13:46;31.70;99.90
2158;DHT22;41972;48.774;9.282;2023-05-07T10:16:13;31.10;99.90
2158;DHT22;41972;48.774;9.282;2023-05-07T10:18:41;31.80;99.90
2158;DHT22;41972;48.774;9.282;2023-05-07T10:21:11;32.40;99.90
2158;DHT22;41972;48.774;9.282;2023-05-07T10:23:43;30.70;99.90
2158;DHT22;41972;48.774;9.282;2023-05-07T10:26:10;29.90;99.90
2158;DHT22;41972;48.774;9.282;2023-05-07T10:28:42;30.40;99.90
2158;DHT22;41972;48.774;9.282;2023-05-07T10:33:42;32.00;99.90
2158;DHT22;41972;48.774;9.282;2023-05-07T10:36:10;32.10;99.90
2158;DHT22;41972;48.774;9.282;2023-05-07T10:38:36;31.40;99.90
2158;DHT22;41972;48.774;9.282;2023-05-07T10:41:02;32.10;99.90
2158;DHT22;41972;48.774;9.282;2023-05-07T10:43:39;33.50;99.90
2158;DHT22;41972;48.774;9.282;2023-05-07T10:46:15;33.20;99.90
2158;DHT22;41972;48.774;9.282;2023-05-07T10:51:25;33.60;99.90
2158;DHT22;41972;48.774;9.282;2023-05-07T10:56:39;29.60;99.90
2158;DHT22;41972;48.774;9.282;2023-05-07T10:59:37;26.00;99.90
2158;DHT22;41972;48.774;9.282;2023-05-07T11:08:56;28.10;99.90
2158;DHT22;41972;48.774;9.282;2023-05-07T11:11:48;27.80;99.90
2158;DHT22;41972;48.774;9.282;2023-05-07T11:14:43;29.10;99.90
2158;DHT22;41972;48.774;9.282;2023-05-07T11:17:09;25.60;99.90
2158;DHT22;41972;48.774;9.282;2023-05-07T11:19:52;26.60;99.90
2158;DHT22;41972;48.774;9.282;2023-05-07T11:22:38;25.90;99.90
2158;DHT22;41972;48.774;9.282;2023-05-07T11:25:06;26.20;99.90
2158;DHT22;41972;48.774;9.282;2023-05-07T11:27:32;24.70;99.90
2158;DHT22;41972;48.774;9.282;2023-05-07T11:29:58;24.50;99.90
2158;DHT22;41972;48.774;9.282;2023-05-07T11:32:28;24.70;99.90
2158;DHT22;41972;48.774;9.282;2023-05-07T11:34:55;24.30;99.90
2158;DHT22;41972;48.774;9.282;2023-05-07T11:37:22;24.30;99.90
2158;DHT22;41972;48.774;9.282;2023-05-07T11:39:48;24.40;99.90
2158;DHT22;41972;48.774;9.282;2023-05-07T11:42:34;24.80;99.90
2158;DHT22;41972;48.774;9.282;2023-05-07T11:45:01;24.50;99.90
2158;DHT22;41972;48.774;9.282;2023-05-07T11:47:30;23.70;99.90
2158;DHT22;41972;48.774;9.282;2023-05-07T11:49:56;23.30;99.90
2158;DHT22;41972;48.774;9.282;2023-05-07T11:52:22;23.30;99.90
2158;DHT22;41972;48.774;9.282;2023-05-07T11:54:52;23.20;99.90
2158;DHT22;41972;48.774;9.282;2023-05-07T11:57:18;23.70;99.90
2158;DHT22;41972;48.774;9.282;2023-05-07T11:59:45;23.90;99.90
2158;DHT22;41972;48.774;9.282;2023-05-07T12:02:14;23.80;99.90
2158;DHT22;41972;48.774;9.282;2023-05-07T12:04:40;23.60;99.90
2158;DHT22;41972;48.774;9.282;2023-05-07T12:07:11;22.80;99.90
2158;DHT22;41972;48.774;9.282;2023-05-07T12:09:37;22.60;99.90
2158;DHT22;41972;48.774;9.282;2023-05-07T12:12:04;22.60;99.90
2158;DHT22;41972;48.774;9.282;2023-05-07T12:14:30;22.80;99.90
2158;DHT22;41972;48.774;9.282;2023-05-07T12:16:55;22.70;99.90
2158;DHT22;41972;48.774;9.282;2023-05-07T12:19:21;22.20;99.90
2158;DHT22;41972;48.774;9.282;2023-05-07T12:21:48;22.00;99.90
2158;DHT22;41972;48.774;9.282;2023-05-07T12:24:14;21.80;99.90
2158;DHT22;41972;48.774;9.282;2023-05-07T12:26:40;21.70;99.90
2158;DHT22;41972;48.774;9.282;2023-05-07T12:29:06;21.50;99.90
2158;DHT22;41972;48.774;9.282;2023-05-07T12:31:32;21.20;99.90
2158;DHT22;41972;48.774;9.282;2023-05-07T12:33:58;20.20;99.90
2158;DHT22;41972;48.774;9.282;2023-05-07T12:36:23;19.50;99.90
2158;DHT22;41972;48.774;9.282;2023-05-07T12:38:50;18.60;99.90
2158;DHT22;41972;48.774;9.282;2023-05-07T12:41:15;18.60;99.90
2158;DHT22;41972;48.774;9.282;2023-05-07T12:43:44;18.30;99.90
2158;DHT22;41972;48.774;9.282;2023-05-07T12:46:10;17.90;99.90
2158;DHT22;41972;48.774;9.282;2023-05-07T12:48:37;17.80;99.90
2158;DHT22;41972;48.774;9.282;2023-05-07T12:51:03;17.50;99.90
2158;DHT22;41972;48.774;9.282;2023-05-07T12:53:30;17.20;99.90
2158;DHT22;41972;48.774;9.282;2023-05-07T12:55:57;18.10;99.90
2158;DHT22;41972;48.774;9.282;2023-05-07T13:00:52;16.50;99.90
2158;DHT22;41972;48.774;9.282;2023-05-07T13:03:22;16.40;99.90
2158;DHT22;41972;48.774;9.282;2023-05-07T13:05:48;17.30;99.90
2158;DHT22;41972;48.774;9.282;2023-05-07T13:08:24;16.20;99.90
2158;DHT22;41972;48.774;9.282;2023-05-07T13:10:49;16.30;99.90
2158;DHT22;41972;48.774;9.282;2023-05-07T13:13:15;16.30;99.90
2158;DHT22;41972;48.774;9.282;2023-05-07T13:15:41;16.00;99.90
2158;DHT22;41972;48.774;9.282;2023-05-07T13:18:06;15.30;99.90
2158;DHT22;41972;48.774;9.282;2023-05-07T13:20:32;15.10;99.90
2158;DHT22;41972;48.774;9.282;2023-05-07T13:22:57;14.70;99.90
2158;DHT22;41972;48.774;9.282;2023-05-07T13:25:23;14.50;99.90
2158;DHT22;41972;48.774;9.282;2023-05-07T13:27:48;14.20;99.90
2158;DHT22;41972;48.774;9.282;2023-05-07T13:30:14;14.20;99.90
2158;DHT22;41972;48.774;9.282;2023-05-07T13:32:39;14.40;99.90
2158;DHT22;41972;48.774;9.282;2023-05-07T13:35:05;14.50;99.90
2158;DHT22;41972;48.774;9.282;2023-05-07T13:37:31;14.20;99.90
2158;DHT22;41972;48.774;9.282;2023-05-07T13:39:57;15.40;99.90
2158;DHT22;41972;48.774;9.282;2023-05-07T13:42:22;14.10;99.90
2158;DHT22;41972;48.774;9.282;2023-05-07T13:44:48;14.10;99.90
2158;DHT22;41972;48.774;9.282;2023-05-07T13:47:13;14.10;99.90
2158;DHT22;41972;48.774;9.282;2023-05-07T13:49:39;14.10;99.90
2158;DHT22;41972;48.774;9.282;2023-05-07T13:52:05;14.10;99.90
2158;DHT22;41972;48.774;9.282;2023-05-07T13:54:30;14.20;99.90
2158;DHT22;41972;48.774;9.282;2023-05-07T13:56:56;13.80;99.90
2158;DHT22;41972;48.774;9.282;2023-05-07T13:59:21;13.60;99.90
2158;DHT22;41972;48.774;9.282;2023-05-07T14:01:47;13.70;99.90
2158;DHT22;41972;48.774;9.282;2023-05-07T14:04:12;13.80;99.90
2158;DHT22;41972;48.774;9.282;2023-05-07T14:06:38;13.80;99.90
2158;DHT22;41972;48.774;9.282;2023-05-07T14:09:04;13.90;99.90
2158;DHT22;41972;48.774;9.282;2023-05-07T14:11:29;15.00;99.90
2158;DHT22;41972;48.774;9.282;2023-05-07T14:13:55;14.60;99.90
2158;DHT22;41972;48.774;9.282;2023-05-07T14:16:22;14.20;99.90
2158;DHT22;41972;48.774;9.282;2023-05-07T14:18:47;14.30;99.90
2158;DHT22;41972;48.774;9.282;2023-05-07T14:21:13;15.70;99.90
2158;DHT22;41972;48.774;9.282;2023-05-07T14:23:39;15.60;99.90
2158;DHT22;41972;48.774;9.282;2023-05-07T14:26:04;14.60;99.90
2158;DHT22;41972;48.774;9.282;2023-05-07T14:28:30;14.70;99.90
2158;DHT22;41972;48.774;9.282;2023-05-07T14:30:56;14.80;99.90
2158;DHT22;41972;48.774;9.282;2023-05-07T14:33:21;14.90;99.90
2158;DHT22;41972;48.774;9.282;2023-05-07T14:35:47;14.70;99.90
2158;DHT22;41972;48.774;9.282;2023-05-07T14:38:14;14.80;99.90
2158;DHT22;41972;48.774;9.282;2023-05-07T14:40:41;14.90;99.90
2158;DHT22;41972;48.774;9.282;2023-05-07T14:43:06;15.10;99.90
2158;DHT22;41972;48.774;9.282;2023-05-07T14:45:32;15.40;99.90
2158;DHT22;41972;48.774;9.282;2023-05-07T14:47:57;15.00;99.90
2158;DHT22;41972;48.774;9.282;2023-05-07T14:50:23;15.20;99.90
2158;DHT22;41972;48.774;9.282;2023-05-07T14:52:48;15.00;99.90
2158;DHT22;41972;48.774;9.282;2023-05-07T14:55:14;15.10;99.90
2158;DHT22;41972;48.774;9.282;2023-05-07T14:57:39;15.20;99.90
2158;DHT22;41972;48.774;9.282;2023-05-07T15:00:06;15.20;99.90
2158;DHT22;41972;48.774;9.282;2023-05-07T15:02:32;15.10;99.90
2158;DHT22;41972;48.774;9.282;2023-05-07T15:04:59;15.10;99.90
2158;DHT22;41972;48.774;9.282;2023-05-07T15:07:24;15.00;99.90
2158;DHT22;41972;48.774;9.282;2023-05-07T15:09:50;15.00;99.90
2158;DHT22;41972;48.774;9.282;2023-05-07T15:12:16;15.00;99.90
2158;DHT22;41972;48.774;9.282;2023-05-07T15:14:42;14.90;99.90
2158;DHT22;41972;48.774;9.282;2023-05-07T15:17:07;15.00;99.90
2158;DHT22;41972;48.774;9.282;2023-05-07T15:19:33;14.70;99.90
2158;DHT22;41972;48.774;9.282;2023-05-07T15:21:59;14.80;99.90
2158;DHT22;41972;48.774;9.282;2023-05-07T15:24:28;14.80;99.90
2158;DHT22;41972;48.774;9.282;2023-05-07T15:26:54;14.90;99.90
2158;DHT22;41972;48.774;9.282;2023-05-07T15:29:21;14.90;99.90
2158;DHT22;41972;48.774;9.282;2023-05-07T15:31:47;15.10;99.90
2158;DHT22;41972;48.774;9.282;2023-05-07T15:34:13;15.30;99.90
2158;DHT22;41972;48.774;9.282;2023-05-07T15:36:40;15.20;99.90
2158;DHT22;41972;48.774;9.282;2023-05-07T15:39:06;14.90;99.90
2158;DHT22;41972;48.774;9.282;2023-05-07T15:41:31;14.80;99.90
2158;DHT22;41972;48.774;9.282;2023-05-07T15:43:57;14.90;99.90
2158;DHT22;41972;48.774;9.282;2023-05-07T15:46:24;14.80;99.90
2158;DHT22;41972;48.774;9.282;2023-05-07T15:48:51;14.70;99.90
2158;DHT22;41972;48.774;9.282;2023-05-07T15:51:17;14.80;99.90
2158;DHT22;41972;48.774;9.282;2023-05-07T15:53:44;14.80;99.90
2158;DHT22;41972;48.774;9.282;2023-05-07T15:56:11;14.90;99.90
2158;DHT22;41972;48.774;9.282;2023-05-07T15:58:36;15.00;99.90